Time,TemperatureF,DewpointF,PressureIn,WindDirection,WindDirectionDegrees,WindSpeedMPH,WindSpeedGustMPH,Humidity,HourlyPrecipIn,Conditions,Clouds,dailyrainin,SoftwareType,DateUTC
2013-04-17 00:03:00,38.3,31.1,30.29,ENE,57,1.2,1.7,75,0.00,,,0.00,WUHU216HW,2013-04-17 05:03:00,
2013-04-17 00:13:00,38.3,31.1,30.29,East,85,1.0,1.7,75,0.00,,,0.00,WUHU216HW,2013-04-17 05:13:00,
2013-04-17 00:23:00,38.2,31.0,30.29,North,0,0.0,0.0,75,0.00,,,0.00,WUHU216HW,2013-04-17 05:23:00,
2013-04-17 00:33:00,38.2,31.0,30.29,North,0,0.0,0.0,75,0.00,,,0.00,WUHU216HW,2013-04-17 05:33:00,
2013-04-17 00:43:00,38.0,31.1,30.30,ENE,68,0.4,0.4,76,0.00,,,0.00,WUHU216HW,2013-04-17 05:43:00,
2013-04-17 00:53:00,38.0,31.1,30.30,NNE,23,1.2,1.2,76,0.00,,,0.00,WUHU216HW,2013-04-17 05:53:00,
2013-04-17 01:03:00,38.0,31.1,30.30,North,6,0.9,1.2,76,0.00,,,0.00,WUHU216HW,2013-04-17 06:03:00,
2013-04-17 01:13:00,38.0,31.1,30.30,North,0,0.3,0.4,76,0.00,,,0.00,WUHU216HW,2013-04-17 06:13:00,
2013-04-17 01:23:00,37.8,30.9,30.30,NNW,344,0.4,0.4,76,0.00,,,0.00,WUHU216HW,2013-04-17 06:23:00,
2013-04-17 01:33:00,38.0,31.1,30.31,North,0,0.6,0.7,76,0.00,,,0.00,WUHU216HW,2013-04-17 06:33:00,
2013-04-17 01:43:00,38.0,31.1,30.30,NNE,14,1.2,1.7,76,0.00,,,0.00,WUHU216HW,2013-04-17 06:43:00,
2013-04-17 01:53:00,38.2,31.3,30.31,NNE,15,0.6,0.9,76,0.00,,,0.00,WUHU216HW,2013-04-17 06:53:00,
2013-04-17 02:03:00,38.2,31.3,30.31,North,0,0.4,0.7,76,0.00,,,0.00,WUHU216HW,2013-04-17 07:03:00,
2013-04-17 02:13:00,38.3,31.7,30.31,NE,42,0.8,1.9,77,0.00,,,0.00,WUHU216HW,2013-04-17 07:13:00,
2013-04-17 02:23:00,38.5,32.2,30.31,NNE,21,1.2,2.1,78,0.00,,,0.00,WUHU216HW,2013-04-17 07:23:00,
2013-04-17 02:33:00,38.5,32.2,30.31,NNW,338,0.3,0.4,78,0.00,,,0.00,WUHU216HW,2013-04-17 07:33:00,
2013-04-17 02:43:00,38.5,32.5,30.31,ENE,73,1.5,1.7,79,0.00,,,0.00,WUHU216HW,2013-04-17 07:43:00,
2013-04-17 02:53:00,38.5,32.5,30.30,NE,52,2.1,2.6,79,0.00,,,0.00,WUHU216HW,2013-04-17 07:53:00,
2013-04-17 03:03:00,38.9,32.9,30.30,NE,50,3.1,4.0,79,0.00,,,0.00,WUHU216HW,2013-04-17 08:03:00,
2013-04-17 03:13:00,39.2,32.9,30.30,NE,54,3.7,5.4,78,0.00,,,0.00,WUHU216HW,2013-04-17 08:13:00,
2013-04-17 03:23:00,39.2,32.9,30.30,ENE,60,2.9,5.1,78,0.00,,,0.00,WUHU216HW,2013-04-17 08:23:00,
2013-04-17 03:33:00,39.4,32.4,30.29,ENE,61,4.3,5.7,76,0.00,,,0.00,WUHU216HW,2013-04-17 08:33:00,
2013-04-17 03:43:00,39.6,32.3,30.30,ENE,65,4.0,4.9,75,0.00,,,0.00,WUHU216HW,2013-04-17 08:43:00,
2013-04-17 03:53:00,39.6,32.0,30.29,ENE,62,5.0,7.0,74,0.00,,,0.00,WUHU216HW,2013-04-17 08:53:00,
2013-04-17 04:03:00,39.8,31.2,30.30,NE,45,7.9,13.4,71,0.00,,,0.00,WUHU216HW,2013-04-17 09:03:00,
2013-04-17 04:13:00,39.2,31.6,30.29,ENE,59,11.4,16.5,74,0.00,,,0.00,WUHU216HW,2013-04-17 09:13:00,
2013-04-17 04:23:00,38.9,32.0,30.29,ENE,61,8.6,12.7,76,0.00,,,0.00,WUHU216HW,2013-04-17 09:23:00,
2013-04-17 04:33:00,38.7,32.1,30.28,NE,54,8.3,10.3,77,0.00,,,0.00,WUHU216HW,2013-04-17 09:33:00,
2013-04-17 04:43:00,38.5,31.9,30.29,NE,46,9.4,11.6,77,0.00,,,0.00,WUHU216HW,2013-04-17 09:43:00,
2013-04-17 04:53:00,38.3,31.4,30.29,ENE,64,8.5,11.8,76,0.00,,,0.00,WUHU216HW,2013-04-17 09:53:00,
2013-04-17 05:03:00,38.0,31.4,30.29,NE,39,7.3,12.0,77,0.00,,,0.00,WUHU216HW,2013-04-17 10:03:00,
2013-04-17 05:14:00,37.6,31.3,30.29,ENE,57,7.4,9.1,78,0.00,,,0.00,WUHU216HW,2013-04-17 10:14:00,
2013-04-17 05:24:00,37.4,31.1,30.28,ENE,61,8.8,12.0,78,0.00,,,0.00,WUHU216HW,2013-04-17 10:24:00,
2013-04-17 05:34:00,37.1,30.8,30.27,NE,49,8.5,12.5,78,0.00,,,0.00,WUHU216HW,2013-04-17 10:34:00,
2013-04-17 05:44:00,36.9,31.3,30.27,NNE,26,8.1,9.7,80,0.00,,,0.00,WUHU216HW,2013-04-17 10:44:00,
2013-04-17 05:54:00,36.7,31.1,30.27,ENE,63,8.8,14.3,80,0.00,,,0.00,WUHU216HW,2013-04-17 10:54:00,
2013-04-17 06:04:00,36.5,31.2,30.27,NE,44,8.7,12.5,81,0.00,,,0.00,WUHU216HW,2013-04-17 11:04:00,
2013-04-17 06:14:00,36.4,31.4,30.28,NE,44,7.7,11.6,82,0.00,,,0.00,WUHU216HW,2013-04-17 11:14:00,
2013-04-17 06:24:00,36.4,31.4,30.28,NE,51,10.2,14.6,82,0.00,,,0.00,WUHU216HW,2013-04-17 11:24:00,
2013-04-17 06:34:00,36.7,31.7,30.27,NE,53,10.5,14.3,82,0.00,,,0.00,WUHU216HW,2013-04-17 11:34:00,
2013-04-17 06:44:00,37.1,31.5,30.27,NE,43,12.9,20.0,80,0.00,,,0.00,WUHU216HW,2013-04-17 11:44:00,
2013-04-17 06:54:00,37.4,31.7,30.27,ENE,59,11.8,15.0,80,0.00,,,0.00,WUHU216HW,2013-04-17 11:54:00,
2013-04-17 07:04:00,37.8,31.5,30.28,ENE,68,8.9,15.2,78,0.00,,,0.00,WUHU216HW,2013-04-17 12:04:00,
2013-04-17 07:14:00,39.2,32.6,30.29,ENE,70,10.5,13.9,77,0.00,,,0.00,WUHU216HW,2013-04-17 12:14:00,
2013-04-17 07:24:00,39.6,32.3,30.27,East,84,11.1,16.5,75,0.00,,,0.00,WUHU216HW,2013-04-17 12:24:00,
2013-04-17 07:34:00,39.2,31.9,30.29,East,84,9.8,12.7,75,0.00,,,0.00,WUHU216HW,2013-04-17 12:34:00,
2013-04-17 07:44:00,39.4,32.1,30.31,ENE,57,4.7,8.0,75,0.00,,,0.00,WUHU216HW,2013-04-17 12:44:00,
2013-04-17 07:54:00,39.6,32.0,30.32,East,88,6.2,10.1,74,0.00,,,0.00,WUHU216HW,2013-04-17 12:54:00,
2013-04-17 08:04:00,40.0,32.4,30.32,ENE,74,5.9,10.3,74,0.00,,,0.00,WUHU216HW,2013-04-17 13:04:00,
2013-04-17 08:14:00,40.3,32.0,30.31,ENE,74,8.1,8.9,72,0.00,,,0.00,WUHU216HW,2013-04-17 13:14:00,
2013-04-17 08:24:00,40.7,32.4,30.32,East,81,6.6,10.6,72,0.00,,,0.00,WUHU216HW,2013-04-17 13:24:00,
2013-04-17 08:34:00,40.7,32.0,30.31,ENE,59,9.7,11.6,71,0.00,,,0.00,WUHU216HW,2013-04-17 13:34:00,
2013-04-17 08:44:00,40.9,31.9,30.30,ENE,62,8.9,15.5,70,0.00,,,0.00,WUHU216HW,2013-04-17 13:44:00,
2013-04-17 08:54:00,40.7,32.0,30.28,East,82,12.1,15.2,71,0.00,,,0.00,WUHU216HW,2013-04-17 13:54:00,
2013-04-17 09:04:00,40.7,32.0,30.28,ENE,71,13.6,20.2,71,0.00,,,0.00,WUHU216HW,2013-04-17 14:04:00,
2013-04-17 09:14:00,40.9,32.2,30.28,ENE,75,10.5,14.6,71,0.00,,,0.00,WUHU216HW,2013-04-17 14:14:00,
2013-04-17 09:24:00,40.9,32.2,30.27,NE,50,12.8,17.4,71,0.00,,,0.00,WUHU216HW,2013-04-17 14:24:00,
2013-04-17 09:34:00,40.7,32.0,30.27,NE,50,11.8,13.9,71,0.00,,,0.00,WUHU216HW,2013-04-17 14:34:00,
2013-04-17 09:44:00,40.7,33.1,30.26,ENE,70,11.9,16.0,74,0.00,,,0.00,WUHU216HW,2013-04-17 14:44:00,
2013-04-17 09:54:00,40.7,32.7,30.22,NE,51,18.5,22.4,73,0.00,,,0.00,WUHU216HW,2013-04-17 14:54:00,
2013-04-17 10:04:00,40.7,32.4,30.19,NE,52,16.9,20.9,72,0.05,,,0.05,WUHU216HW,2013-04-17 15:04:00,
2013-04-17 10:15:00,40.5,32.9,30.19,ENE,69,21.5,27.2,74,0.05,,,0.05,WUHU216HW,2013-04-17 15:15:00,
2013-04-17 10:25:00,40.5,32.9,30.23,ENE,71,7.7,16.7,74,0.05,,,0.05,WUHU216HW,2013-04-17 15:25:00,
2013-04-17 10:35:00,40.5,33.2,30.26,ESE,122,3.9,8.9,75,0.05,,,0.05,WUHU216HW,2013-04-17 15:35:00,
2013-04-17 10:45:00,40.0,33.7,30.25,ESE,122,6.4,8.9,78,0.05,,,0.05,WUHU216HW,2013-04-17 15:45:00,
2013-04-17 10:55:00,39.4,33.7,30.23,ENE,65,15.3,22.6,80,0.00,,,0.05,WUHU216HW,2013-04-17 15:55:00,
2013-04-17 11:05:00,39.1,34.3,30.18,NE,53,8.9,15.2,83,0.00,,,0.05,WUHU216HW,2013-04-17 16:05:00,
2013-04-17 11:15:00,39.4,34.3,30.19,East,94,13.5,19.5,82,0.00,,,0.05,WUHU216HW,2013-04-17 16:15:00,
2013-04-17 11:25:00,39.4,34.0,30.20,ENE,68,13.6,14.8,81,0.00,,,0.05,WUHU216HW,2013-04-17 16:25:00,
2013-04-17 11:35:00,39.8,34.4,30.19,ENE,75,9.8,15.8,81,0.00,,,0.05,WUHU216HW,2013-04-17 16:35:00,
2013-04-17 11:45:00,39.6,33.6,30.20,East,92,12.2,16.7,79,0.00,,,0.05,WUHU216HW,2013-04-17 16:45:00,
2013-04-17 11:55:00,39.6,33.9,30.20,NE,36,10.6,15.8,80,0.00,,,0.05,WUHU216HW,2013-04-17 16:55:00,
2013-04-17 12:05:00,39.6,34.2,30.20,ENE,68,7.8,7.8,81,0.00,,,0.05,WUHU216HW,2013-04-17 17:05:00,
2013-04-17 12:15:00,39.4,34.6,30.17,North,0,0.0,0.0,83,0.00,,,0.05,WUHU216HW,2013-04-17 17:15:00,
2013-04-17 12:25:00,39.2,34.4,30.19,North,0,0.0,0.0,83,0.00,,,0.05,WUHU216HW,2013-04-17 17:25:00,
2013-04-17 12:35:00,39.1,34.0,30.23,North,0,0.0,0.0,82,0.00,,,0.05,WUHU216HW,2013-04-17 17:35:00,
2013-04-17 12:45:00,39.1,34.6,30.20,North,0,0.0,0.0,84,0.00,,,0.05,WUHU216HW,2013-04-17 17:45:00,
2013-04-17 12:55:00,38.9,35.0,30.20,North,0,0.0,0.0,86,0.00,,,0.05,WUHU216HW,2013-04-17 17:55:00,
2013-04-17 13:05:00,38.9,35.3,30.18,North,0,0.0,0.0,87,0.00,,,0.05,WUHU216HW,2013-04-17 18:05:00,
2013-04-17 13:15:00,38.7,35.1,30.19,North,0,0.0,0.0,87,0.00,,,0.05,WUHU216HW,2013-04-17 18:15:00,
2013-04-17 13:25:00,38.7,34.5,30.16,ENE,68,16.4,18.8,85,0.00,,,0.05,WUHU216HW,2013-04-17 18:25:00,
2013-04-17 13:35:00,38.3,34.7,30.18,East,88,12.4,18.8,87,0.00,,,0.05,WUHU216HW,2013-04-17 18:35:00,
2013-04-17 13:45:00,38.2,34.3,30.18,ENE,76,12.3,14.1,86,0.00,,,0.05,WUHU216HW,2013-04-17 18:45:00,
2013-04-17 13:55:00,37.8,34.2,30.19,ENE,68,9.9,14.1,87,0.00,,,0.05,WUHU216HW,2013-04-17 18:55:00,
2013-04-17 14:05:00,37.8,34.5,30.18,ENE,68,5.7,5.7,88,0.00,,,0.05,WUHU216HW,2013-04-17 19:05:00,
2013-04-17 14:15:00,37.4,34.1,30.17,North,0,0.0,0.0,88,0.00,,,0.05,WUHU216HW,2013-04-17 19:15:00,
2013-04-17 14:25:00,37.3,34.0,30.17,North,0,0.0,0.0,88,0.00,,,0.05,WUHU216HW,2013-04-17 19:25:00,
2013-04-17 14:35:00,37.1,33.8,30.16,North,0,0.0,0.0,88,0.00,,,0.05,WUHU216HW,2013-04-17 19:35:00,
2013-04-17 14:45:00,37.1,33.8,30.15,North,0,0.0,0.0,88,0.00,,,0.05,WUHU216HW,2013-04-17 19:45:00,
2013-04-17 14:55:00,36.9,33.9,30.15,North,0,0.0,0.0,89,0.00,,,0.05,WUHU216HW,2013-04-17 19:55:00,
2013-04-17 15:05:00,37.1,34.1,30.15,North,0,0.0,0.0,89,0.00,,,0.05,WUHU216HW,2013-04-17 20:05:00,
2013-04-17 15:15:00,37.1,34.1,30.14,North,0,0.0,0.0,89,0.00,,,0.05,WUHU216HW,2013-04-17 20:15:00,
2013-04-17 15:25:00,37.3,34.3,30.13,ENE,68,5.8,8.9,89,0.00,,,0.05,WUHU216HW,2013-04-17 20:25:00,
2013-04-17 15:35:00,37.6,35.1,30.12,North,4,9.3,10.1,91,0.00,,,0.05,WUHU216HW,2013-04-17 20:35:00,
2013-04-17 15:45:00,37.8,35.0,30.08,NE,54,12.6,15.0,90,0.00,,,0.05,WUHU216HW,2013-04-17 20:45:00,
2013-04-17 15:55:00,38.2,35.4,30.01,ENE,61,17.0,27.5,90,0.00,,,0.05,WUHU216HW,2013-04-17 20:55:00,
2013-04-17 16:06:00,38.5,36.0,30.03,ENE,73,16.1,23.7,91,0.00,,,0.05,WUHU216HW,2013-04-17 21:06:00,
2013-04-17 16:15:00,38.9,36.4,30.07,ENE,76,16.3,23.7,91,0.00,,,0.05,WUHU216HW,2013-04-17 21:15:00,
2013-04-17 16:26:00,39.2,36.7,30.05,NE,52,17.9,22.0,91,0.00,,,0.05,WUHU216HW,2013-04-17 21:26:00,
2013-04-17 16:36:00,39.2,36.7,30.07,ENE,70,15.9,21.1,91,0.00,,,0.05,WUHU216HW,2013-04-17 21:36:00,
2013-04-17 16:47:00,39.2,36.7,30.05,ENE,62,16.7,21.1,91,0.00,,,0.05,WUHU216HW,2013-04-17 21:47:00,
2013-04-17 16:57:00,39.2,36.7,30.06,ENE,74,14.5,23.5,91,0.00,,,0.05,WUHU216HW,2013-04-17 21:57:00,
2013-04-17 17:07:00,39.2,36.7,30.06,ENE,67,13.1,15.2,91,0.00,,,0.05,WUHU216HW,2013-04-17 22:07:00,
2013-04-17 17:18:00,39.6,37.1,30.07,East,80,10.7,15.0,91,0.00,,,0.05,WUHU216HW,2013-04-17 22:18:00,
2013-04-17 17:28:00,39.6,37.1,30.06,ENE,73,10.6,15.8,91,0.00,,,0.05,WUHU216HW,2013-04-17 22:28:00,
2013-04-17 17:39:00,40.0,37.5,30.04,ENE,77,11.9,16.5,91,0.00,,,0.05,WUHU216HW,2013-04-17 22:39:00,
2013-04-17 17:49:00,40.0,37.5,30.04,ENE,64,12.1,16.2,91,0.00,,,0.05,WUHU216HW,2013-04-17 22:49:00,
2013-04-17 17:59:00,40.0,37.5,30.04,ENE,72,11.6,16.2,91,0.00,,,0.05,WUHU216HW,2013-04-17 22:59:00,
2013-04-17 18:10:00,40.1,37.6,30.04,East,83,10.5,14.6,91,0.00,,,0.05,WUHU216HW,2013-04-17 23:10:00,
2013-04-17 18:21:00,40.1,37.6,30.02,East,87,10.9,17.1,91,0.00,,,0.05,WUHU216HW,2013-04-17 23:21:00,
2013-04-17 18:31:00,40.1,37.6,30.04,East,82,10.1,18.1,91,0.00,,,0.05,WUHU216HW,2013-04-17 23:31:00,
2013-04-17 18:41:00,40.1,37.6,30.02,East,80,12.2,17.4,91,0.00,,,0.05,WUHU216HW,2013-04-17 23:41:00,
2013-04-17 18:52:00,40.1,37.6,30.02,ENE,77,11.3,16.0,91,0.00,,,0.05,WUHU216HW,2013-04-17 23:52:00,
2013-04-17 19:01:00,40.1,37.6,29.99,ENE,75,11.4,15.0,91,0.00,,,0.05,WUHU216HW,2013-04-18 00:01:00,
2013-04-17 19:12:00,40.3,37.8,29.97,ENE,65,12.1,16.0,91,0.00,,,0.05,WUHU216HW,2013-04-18 00:12:00,
2013-04-17 19:23:00,40.3,37.8,29.96,East,80,12.7,15.0,91,0.00,,,0.05,WUHU216HW,2013-04-18 00:23:00,
2013-04-17 19:33:00,40.3,37.8,29.95,East,85,11.2,19.5,91,0.00,,,0.05,WUHU216HW,2013-04-18 00:33:00,
2013-04-17 19:44:00,40.3,37.8,29.93,East,91,15.1,19.5,91,0.00,,,0.05,WUHU216HW,2013-04-18 00:44:00,
2013-04-17 19:54:00,40.3,37.8,29.94,East,89,11.3,16.7,91,0.00,,,0.05,WUHU216HW,2013-04-18 00:54:00,
2013-04-17 20:05:00,40.3,37.8,29.92,ENE,72,13.0,20.9,91,0.00,,,0.05,WUHU216HW,2013-04-18 01:05:00,
2013-04-17 20:15:00,40.3,37.8,29.91,East,100,12.6,18.1,91,0.00,,,0.05,WUHU216HW,2013-04-18 01:15:00,
2013-04-17 20:25:00,40.5,38.0,29.94,ENE,75,12.3,18.8,91,0.00,,,0.05,WUHU216HW,2013-04-18 01:25:00,
2013-04-17 20:36:00,40.7,38.2,29.92,East,81,14.5,23.0,91,0.00,,,0.05,WUHU216HW,2013-04-18 01:36:00,
2013-04-17 20:46:00,40.7,38.2,29.92,ENE,72,12.4,18.6,91,0.00,,,0.05,WUHU216HW,2013-04-18 01:46:00,
2013-04-17 20:57:00,40.7,38.2,29.94,ENE,74,10.1,17.1,91,0.00,,,0.05,WUHU216HW,2013-04-18 01:57:00,
2013-04-17 21:07:00,40.9,38.4,29.96,East,91,6.5,10.6,91,0.00,,,0.05,WUHU216HW,2013-04-18 02:07:00,
2013-04-17 21:18:00,40.9,38.4,29.94,ESE,105,6.2,14.3,91,0.00,,,0.05,WUHU216HW,2013-04-18 02:18:00,
2013-04-17 21:28:00,40.9,38.4,29.92,East,97,9.5,15.0,91,0.00,,,0.05,WUHU216HW,2013-04-18 02:28:00,
2013-04-17 21:38:00,40.9,38.7,29.90,ENE,76,10.6,18.3,92,0.00,,,0.05,WUHU216HW,2013-04-18 02:38:00,
2013-04-17 21:49:00,40.7,38.5,29.90,East,92,9.8,14.6,92,0.00,,,0.05,WUHU216HW,2013-04-18 02:49:00,
2013-04-17 21:59:00,40.7,38.5,29.89,ENE,65,9.3,17.4,92,0.00,,,0.05,WUHU216HW,2013-04-18 02:59:00,
2013-04-17 22:10:00,40.7,38.5,29.88,East,81,11.2,17.1,92,0.00,,,0.05,WUHU216HW,2013-04-18 03:10:00,
2013-04-17 22:20:00,40.9,38.9,29.91,ENE,73,12.6,19.7,93,0.00,,,0.05,WUHU216HW,2013-04-18 03:20:00,
2013-04-17 22:30:00,41.0,39.0,29.91,East,101,7.2,13.9,93,0.00,,,0.05,WUHU216HW,2013-04-18 03:30:00,
2013-04-17 22:41:00,41.4,39.4,29.91,East,85,11.0,16.5,93,0.00,,,0.05,WUHU216HW,2013-04-18 03:41:00,
2013-04-17 22:51:00,41.4,39.4,29.90,East,92,10.4,15.2,93,0.00,,,0.05,WUHU216HW,2013-04-18 03:51:00,
2013-04-17 23:01:00,41.6,39.6,29.90,East,79,9.9,13.9,93,0.00,,,0.05,WUHU216HW,2013-04-18 04:01:00,
2013-04-17 23:12:00,41.8,39.8,29.90,ENE,61,11.5,15.5,93,0.00,,,0.05,WUHU216HW,2013-04-18 04:12:00,
2013-04-17 23:22:00,41.8,39.8,29.89,East,79,12.3,16.5,93,0.00,,,0.05,WUHU216HW,2013-04-18 04:22:00,
2013-04-17 23:33:00,41.8,39.8,29.89,ENE,63,10.3,13.4,93,0.00,,,0.05,WUHU216HW,2013-04-18 04:33:00,
2013-04-17 23:43:00,41.6,39.6,29.90,ENE,62,11.0,14.8,93,0.00,,,0.05,WUHU216HW,2013-04-18 04:43:00,
2013-04-17 23:53:00,41.4,39.4,29.90,NE,56,8.7,14.3,93,0.00,,,0.05,WUHU216HW,2013-04-18 04:53:00,